createdAt,value
2022-12-14T00:02:36.497Z,20.0
2022-12-14T00:07:22.717Z,27.9
2022-12-14T00:12:29.137Z,33.2
2022-12-14T00:17:35.571Z,20.3
2022-12-14T00:22:41.971Z,25.8
2022-12-14T00:27:37.333Z,19.0
2022-12-14T00:32:44.813Z,24.9
2022-12-14T00:38:01.217Z,21.8
2022-12-14T00:43:12.187Z,17.8
2022-12-14T00:48:18.540Z,32.5
2022-12-14T00:53:40.948Z,16.5
2022-12-14T00:58:31.647Z,26.5
2022-12-14T01:04:08.868Z,21.3
2022-12-14T01:09:40.298Z,17.9
2022-12-14T01:14:22.697Z,20.1
2022-12-14T01:19:19.025Z,19.3
2022-12-14T01:24:35.421Z,14.0
2022-12-14T01:29:42.014Z,20.1
2022-12-14T01:35:12.412Z,18.0
2022-12-14T01:39:56.312Z,21.8
2022-12-14T01:45:02.727Z,34.1
2022-12-14T01:50:29.134Z,17.7
2022-12-14T01:55:15.478Z,18.7
2022-12-14T02:01:34.183Z,25.7
2022-12-14T02:05:28.242Z,16.5
2022-12-14T02:10:54.719Z,15.1
2022-12-14T02:15:45.163Z,11.5
2022-12-14T02:20:47.504Z,16.6
2022-12-14T02:25:53.920Z,11.9
2022-12-14T02:31:20.408Z,26.2
2022-12-14T02:36:06.736Z,15.2
2022-12-14T02:41:37.144Z,22.8
2022-12-14T02:46:19.523Z,17.8
2022-12-14T02:51:25.867Z,22.6
2022-12-14T02:56:33.427Z,17.8
2022-12-14T03:01:29.921Z,23.0
2022-12-14T03:06:46.374Z,13.5
2022-12-14T03:11:52.733Z,16.6
2022-12-14T03:16:59.127Z,12.0
2022-12-14T03:22:29.557Z,15.4
2022-12-14T03:27:10.869Z,23.9
2022-12-14T03:32:18.424Z,17.4
2022-12-14T03:37:24.926Z,25.7
2022-12-14T03:42:31.354Z,10.9
2022-12-14T03:47:37.811Z,12.8
2022-12-14T03:52:44.228Z,15.2
2022-12-14T03:57:50.655Z,14.8
2022-12-14T04:03:11.083Z,12.6
2022-12-14T04:08:03.397Z,12.9
2022-12-14T04:13:13.831Z,15.1
2022-12-14T04:18:16.210Z,18.4
2022-12-14T04:23:26.905Z,16.3
2022-12-14T04:28:29.104Z,14.8
2022-12-14T04:33:55.516Z,13.3
2022-12-14T04:38:31.868Z,11.9
2022-12-14T04:43:38.276Z,23.4
2022-12-14T04:48:54.663Z,18.2
2022-12-14T05:04:47.380Z,19.5
2022-12-14T05:09:54.722Z,16.1
2022-12-14T05:15:05.099Z,13.3
2022-12-14T05:20:07.492Z,11.5
2022-12-14T05:25:14.006Z,16.0
2022-12-14T05:30:20.600Z,14.9
2022-12-14T05:35:26.796Z,12.4
2022-12-14T05:40:33.155Z,14.8
2022-12-14T05:46:03.695Z,17.3
2022-12-14T05:50:45.984Z,16.4
2022-12-14T05:55:52.409Z,13.2
2022-12-14T06:01:02.819Z,17.9
2022-12-14T06:06:25.256Z,17.5
2022-12-14T06:11:11.681Z,11.0
2022-12-14T06:16:08.214Z,11.6
2022-12-14T06:21:28.129Z,15.7
2022-12-14T06:26:38.546Z,12.7
2022-12-14T06:32:00.936Z,13.6
2022-12-14T06:36:47.282Z,14.2
2022-12-14T06:41:53.809Z,10.5
2022-12-14T06:47:04.187Z,12.2
2022-12-14T06:52:12.126Z,9.8
2022-12-14T06:57:14.587Z,19.0
2022-12-14T07:02:21.173Z,12.0
2022-12-14T07:07:27.349Z,16.7
2022-12-14T07:12:33.740Z,15.2
2022-12-14T07:17:30.086Z,14.3
2022-12-14T07:22:49.340Z,15.9
2022-12-14T07:27:42.869Z,13.5
2022-12-14T07:33:02.814Z,12.7
2022-12-14T07:38:09.186Z,10.0
2022-12-14T07:43:15.648Z,15.1
2022-12-14T07:48:46.046Z,13.2
2022-12-14T07:53:32.399Z,11.5
2022-12-14T07:58:34.895Z,11.8
2022-12-14T08:03:55.304Z,12.5
2022-12-14T08:08:47.741Z,16.9
2022-12-14T08:13:54.352Z,11.7
2022-12-14T08:24:12.629Z,16.3
2022-12-14T08:29:15.017Z,15.0
2022-12-14T08:34:40.417Z,13.1
2022-12-14T08:39:51.805Z,17.4
2022-12-14T08:44:54.211Z,13.8
2022-12-14T08:49:32.410Z,10.0
2022-12-14T08:54:46.933Z,13.8
2022-12-14T09:00:03.925Z,14.7
2022-12-14T09:04:58.743Z,16.3
2022-12-14T09:10:31.819Z,15.9
2022-12-14T09:15:13.141Z,16.7
2022-12-14T09:20:24.548Z,18.1
2022-12-14T09:25:26.907Z,16.1
2022-12-14T09:30:33.300Z,16.0
2022-12-14T09:35:39.674Z,22.9
2022-12-14T09:42:01.792Z,23.3
2022-12-14T09:46:16.159Z,28.2
2022-12-14T09:51:02.467Z,21.7
2022-12-14T09:56:08.905Z,16.0
2022-12-14T10:01:15.496Z,26.7
2022-12-14T10:06:11.755Z,23.0
2022-12-14T10:11:27.174Z,18.2
2022-12-14T10:16:34.579Z,23.2
2022-12-14T10:21:45.528Z,32.9
2022-12-14T10:26:51.902Z,19.0
2022-12-14T10:31:58.373Z,34.2
2022-12-14T10:37:04.646Z,24.9
2022-12-14T10:42:07.086Z,44.0
2022-12-14T10:47:37.523Z,29.2
2022-12-14T10:52:09.885Z,54.7
2022-12-14T10:57:25.308Z,19.2
2022-12-14T11:02:32.994Z,39.7
2022-12-14T11:07:39.092Z,36.8
2022-12-14T11:12:51.072Z,26.0
2022-12-14T11:17:53.625Z,28.2
2022-12-14T11:23:03.907Z,30.6
2022-12-14T11:28:06.302Z,28.0
2022-12-14T11:33:16.682Z,28.4
2022-12-14T11:38:19.063Z,35.3
2022-12-14T11:43:25.441Z,21.1
2022-12-14T11:48:21.810Z,54.6
2022-12-14T11:53:38.216Z,75.3
2022-12-14T12:05:07.705Z,53.9
2022-12-14T12:14:05.871Z,91.0
2022-12-14T12:19:13.279Z,59.5
2022-12-14T12:24:23.671Z,55.0
2022-12-14T12:29:30.052Z,55.0
2022-12-14T12:34:32.424Z,52.5
2022-12-14T12:40:06.878Z,31.1
2022-12-14T12:45:09.288Z,15.2
2022-12-14T12:49:51.731Z,15.2
2022-12-14T12:54:58.225Z,30.6
2022-12-14T13:00:08.620Z,24.5
2022-12-14T13:05:10.846Z,29.7
2022-12-14T13:10:16.371Z,24.0
2022-12-14T13:15:23.786Z,32.8
2022-12-14T13:20:20.150Z,18.6
2022-12-14T13:25:56.597Z,19.8
2022-12-14T13:30:32.912Z,19.7
2022-12-14T13:35:52.331Z,18.6
2022-12-14T13:40:55.714Z,21.0
2022-12-14T13:45:52.099Z,21.1
2022-12-14T13:51:52.587Z,22.8
2022-12-14T13:56:17.979Z,18.9
2022-12-14T14:01:24.520Z,17.0
2022-12-14T14:06:29.774Z,19.2
2022-12-14T14:11:38.435Z,22.3
2022-12-14T14:17:03.776Z,22.9
2022-12-14T14:21:58.782Z,21.9
2022-12-14T14:26:56.324Z,18.7
2022-12-14T14:32:02.773Z,17.6
2022-12-14T14:37:33.251Z,22.1
2022-12-14T14:42:15.550Z,17.9
2022-12-14T14:47:35.943Z,17.6
2022-12-14T14:52:28.301Z,21.7
2022-12-14T14:57:34.726Z,19.3
2022-12-14T15:02:55.124Z,19.3
2022-12-14T15:07:47.484Z,20.8
2022-12-14T15:12:53.907Z,20.8
2022-12-14T15:18:00.312Z,16.0
2022-12-14T15:22:56.777Z,16.8
2022-12-14T15:28:13.330Z,23.9
2022-12-14T15:33:23.684Z,22.4
2022-12-14T15:38:30.075Z,32.8
2022-12-14T15:43:32.733Z,32.1
2022-12-14T15:48:38.832Z,22.3
2022-12-14T15:53:50.328Z,20.2
2022-12-14T15:58:51.621Z,23.2
2022-12-14T16:03:57.996Z,24.7
2022-12-14T16:09:04.367Z,32.1
2022-12-14T16:14:10.860Z,21.2
2022-12-14T16:19:27.186Z,29.9
2022-12-14T16:24:23.610Z,25.9
2022-12-14T16:29:54.077Z,23.1
2022-12-14T16:34:36.385Z,28.3
2022-12-14T16:39:42.752Z,30.4
2022-12-14T16:44:49.138Z,22.3
2022-12-14T16:49:45.514Z,30.9
2022-12-14T16:55:01.899Z,25.4
2022-12-14T17:00:22.304Z,40.7
2022-12-14T17:05:14.684Z,30.5
2022-12-14T17:10:21.023Z,29.1
2022-12-14T17:15:26.436Z,28.6
2022-12-14T17:20:33.848Z,47.4
2022-12-14T17:25:46.048Z,34.4
2022-12-14T17:30:46.738Z,35.6
2022-12-14T17:35:53.115Z,32.9
2022-12-14T17:40:59.453Z,33.1
2022-12-14T17:46:05.927Z,28.1
2022-12-14T17:51:12.249Z,29.2
2022-12-14T17:56:08.679Z,29.3
2022-12-14T18:01:15.236Z,28.4
2022-12-14T18:06:31.501Z,24.4
2022-12-14T18:16:44.795Z,40.6
2022-12-14T18:23:15.405Z,23.4
2022-12-14T18:26:48.594Z,39.3
2022-12-14T18:32:05.013Z,26.9
2022-12-14T18:37:33.060Z,25.1
2022-12-14T18:42:22.305Z,22.8
2022-12-14T18:47:48.375Z,23.8
2022-12-14T18:52:30.563Z,19.3
2022-12-14T18:57:40.967Z,18.6
2022-12-14T19:02:43.589Z,15.8
2022-12-14T19:07:39.889Z,21.7
2022-12-14T19:12:56.319Z,21.8
2022-12-14T19:18:02.664Z,20.9
2022-12-14T19:23:09.068Z,32.1
2022-12-14T19:28:31.493Z,16.4
2022-12-14T19:33:21.823Z,25.1
2022-12-14T19:38:18.178Z,23.1
2022-12-14T19:43:36.733Z,22.7
2022-12-14T19:48:32.998Z,18.2
2022-12-14T19:53:39.373Z,32.6
2022-12-14T19:59:15.837Z,25.7
2022-12-14T20:04:02.658Z,27.6
2022-12-14T20:09:09.001Z,25.1
2022-12-14T20:14:15.452Z,17.7
2022-12-14T20:19:21.904Z,20.2
2022-12-14T20:24:48.314Z,14.8
2022-12-14T20:29:34.666Z,19.1
2022-12-14T20:34:41.068Z,17.5
2022-12-14T20:39:47.425Z,14.9
2022-12-14T20:44:53.829Z,15.9
2022-12-14T20:50:00.228Z,20.3
2022-12-14T20:55:30.624Z,16.9
2022-12-14T21:00:13.089Z,29.9
2022-12-14T21:05:23.517Z,21.2
2022-12-14T21:11:25.952Z,16.3
2022-12-14T21:15:32.463Z,17.9
2022-12-14T21:20:39.244Z,21.7
2022-12-14T21:25:45.522Z,18.3
2022-12-14T21:31:16.049Z,16.7
2022-12-14T21:35:58.447Z,22.3
2022-12-14T21:41:04.873Z,7.1
2022-12-14T21:46:01.305Z,12.6
2022-12-14T21:51:17.677Z,14.0
2022-12-14T21:56:23.640Z,26.9
2022-12-14T22:02:15.306Z,28.8
2022-12-14T22:06:37.472Z,20.4
2022-12-14T22:11:43.821Z,19.8
2022-12-14T22:16:40.274Z,16.1
2022-12-14T22:22:48.744Z,25.6
2022-12-14T22:27:03.007Z,10.0
2022-12-14T22:32:29.555Z,19.0
2022-12-14T22:37:29.980Z,29.2
2022-12-14T22:42:22.425Z,13.2
2022-12-14T22:47:28.722Z,14.4
2022-12-14T22:52:35.106Z,14.0
2022-12-14T22:57:41.556Z,19.6
2022-12-14T23:02:48.899Z,13.8
2022-12-14T23:07:54.403Z,7.7
2022-12-14T23:13:00.915Z,15.6
2022-12-14T23:18:07.268Z,15.0
2022-12-14T23:23:13.688Z,11.5
2022-12-14T23:28:10.066Z,12.6
2022-12-14T23:33:26.597Z,12.6
2022-12-14T23:38:22.809Z,23.4
2022-12-14T23:43:39.214Z,16.1
2022-12-14T23:48:45.572Z,15.1
2022-12-14T23:53:51.954Z,23.4
2022-12-14T23:59:20.124Z,17.0
